createdAt,value
2023-03-13T00:00:36.932Z,62349.70
2023-03-13T00:01:43.842Z,62335.88
2023-03-13T00:02:46.810Z,62316.77
2023-03-13T00:03:49.421Z,62335.61
2023-03-13T00:04:51.523Z,62340.89
2023-03-13T00:05:58.427Z,62344.55
2023-03-13T00:07:01.400Z,62343.34
2023-03-13T00:08:03.864Z,62343.20
2023-03-13T00:09:09.449Z,62345.77
2023-03-13T00:10:11.669Z,62332.77
2023-03-13T00:11:14.741Z,62344.29
2023-03-13T00:12:16.654Z,62343.07
2023-03-13T00:13:18.519Z,62351.87
2023-03-13T00:14:20.424Z,62351.19
2023-03-13T00:15:22.460Z,62321.50
2023-03-13T00:16:26.242Z,62326.39
2023-03-13T00:17:28.318Z,62335.47
2023-03-13T00:18:30.468Z,62310.82
2023-03-13T00:19:32.335Z,62322.18
2023-03-13T00:20:34.532Z,62329.10
2023-03-13T00:21:38.252Z,62328.57
2023-03-13T00:22:40.237Z,62316.91
2023-03-13T00:23:43.316Z,62313.52
2023-03-13T00:24:46.293Z,62319.87
2023-03-13T00:25:48.280Z,62334.52
2023-03-13T00:26:50.366Z,62309.87
2023-03-13T00:27:52.256Z,62305.93
2023-03-13T00:28:54.607Z,62314.61
2023-03-13T00:29:57.706Z,62328.01
2023-03-13T00:31:21.448Z,62299.02
2023-03-13T00:32:23.734Z,62318.27
2023-03-13T00:33:25.739Z,62312.45
2023-03-13T00:34:27.629Z,62326.94
2023-03-13T00:35:29.672Z,62333.43
2023-03-13T00:36:34.806Z,62328.01
2023-03-13T00:37:37.490Z,62328.42
2023-03-13T00:38:39.806Z,62312.30
2023-03-13T00:39:42.052Z,62303.48
2023-03-13T00:40:44.050Z,62316.09
2023-03-13T00:41:46.194Z,62313.13
2023-03-13T00:42:48.473Z,62316.77
2023-03-13T00:43:51.592Z,62316.77
2023-03-13T00:44:53.506Z,62312.83
2023-03-13T00:45:55.681Z,62306.62
2023-03-13T00:46:58.034Z,62310.26
2023-03-13T00:47:59.987Z,62318.27
2023-03-13T00:49:03.137Z,62312.30
2023-03-13T00:50:06.393Z,62316.91
2023-03-13T00:51:09.119Z,62323.69
2023-03-13T00:52:11.180Z,62321.24
2023-03-13T00:53:13.154Z,62318.39
2023-03-13T00:54:15.077Z,62329.10
2023-03-13T00:55:17.167Z,62310.67
2023-03-13T00:56:21.590Z,62320.43
2023-03-13T00:57:23.600Z,62292.39
2023-03-13T00:58:27.866Z,62306.62
2023-03-13T00:59:32.557Z,62307.68
2023-03-13T01:00:34.692Z,62295.08
2023-03-13T01:01:36.571Z,62300.91
2023-03-13T01:02:43.131Z,62290.08
2023-03-13T01:03:48.911Z,62307.42
2023-03-13T01:04:51.056Z,62309.19
2023-03-13T01:05:58.345Z,62316.23
2023-03-13T01:07:00.849Z,62318.80
2023-03-13T01:08:03.142Z,62300.52
2023-03-13T01:09:07.554Z,62298.34
2023-03-13T01:10:11.799Z,62313.39
2023-03-13T01:11:21.379Z,62302.54
2023-03-13T01:12:23.452Z,62299.84
2023-03-13T01:13:26.034Z,62313.93
2023-03-13T01:14:28.565Z,62311.50
2023-03-13T01:15:33.500Z,62311.35
2023-03-13T01:16:36.598Z,62317.30
2023-03-13T01:17:38.621Z,62312.98
2023-03-13T01:18:44.392Z,62301.74
2023-03-13T01:19:46.421Z,62305.25
2023-03-13T01:20:48.873Z,62314.07
2023-03-13T01:21:51.662Z,62318.80
2023-03-13T01:22:53.560Z,62315.70
2023-03-13T01:23:57.616Z,62315.02
2023-03-13T01:24:59.665Z,62322.86
2023-03-13T01:26:07.161Z,62317.45
2023-03-13T01:27:09.199Z,62311.47
2023-03-13T01:28:11.182Z,62318.80
2023-03-13T01:29:13.929Z,62313.78
2023-03-13T01:30:17.208Z,62317.30
2023-03-13T01:31:24.729Z,62301.59
2023-03-13T01:32:26.876Z,62316.50
2023-03-13T01:33:28.798Z,62311.08
2023-03-13T01:34:30.669Z,62301.18
2023-03-13T01:35:35.594Z,62302.00
2023-03-13T01:36:37.986Z,62311.35
2023-03-13T01:37:40.082Z,62311.50
2023-03-13T01:38:43.126Z,62301.18
2023-03-13T01:39:45.003Z,62315.96
2023-03-13T01:40:48.660Z,62322.18
2023-03-13T01:41:50.673Z,62320.02
2023-03-13T01:42:55.046Z,62312.57
2023-03-13T01:43:59.175Z,62308.24
2023-03-13T01:45:01.758Z,62318.80
2023-03-13T01:46:08.991Z,62326.94
2023-03-13T01:47:11.132Z,62324.90
2023-03-13T01:48:13.351Z,62327.07
2023-03-13T01:49:28.320Z,62329.64
2023-03-13T01:50:30.920Z,62320.43
2023-03-13T01:51:45.586Z,62323.28
2023-03-13T01:52:47.911Z,62320.43
2023-03-13T01:53:56.134Z,62330.20
2023-03-13T01:56:19.294Z,62307.01
2023-03-13T01:57:36.757Z,62314.07
2023-03-13T01:58:39.005Z,62295.64
2023-03-13T01:59:50.763Z,62305.53
2023-03-13T02:00:54.802Z,62310.52
2023-03-13T02:02:00.528Z,62314.61
2023-03-13T02:03:06.508Z,62293.33
2023-03-13T02:04:09.181Z,62306.47
2023-03-13T02:05:13.673Z,62303.22
2023-03-13T02:06:17.586Z,62309.32
2023-03-13T02:07:29.171Z,62322.59
2023-03-13T02:08:35.503Z,62325.85
2023-03-13T02:09:41.171Z,62301.59
2023-03-13T02:10:46.947Z,62319.34
2023-03-13T02:12:04.496Z,62318.39
2023-03-13T02:13:06.593Z,62319.34
2023-03-13T02:14:09.545Z,62308.24
2023-03-13T02:15:15.309Z,62308.24
2023-03-13T02:16:19.922Z,62297.39
2023-03-13T02:17:27.243Z,62316.23
2023-03-13T02:18:30.018Z,62327.33
2023-03-13T02:19:46.964Z,62299.84
2023-03-13T02:20:51.910Z,62307.42
2023-03-13T02:22:09.772Z,62319.87
2023-03-13T02:23:20.210Z,62316.36
2023-03-13T02:24:28.905Z,62322.06
2023-03-13T02:25:38.250Z,62324.76
2023-03-13T02:26:40.843Z,62308.24
2023-03-13T02:27:45.456Z,62299.43
2023-03-13T02:28:47.630Z,62317.71
2023-03-13T02:29:51.386Z,62315.55
2023-03-13T02:30:55.517Z,62310.94
2023-03-13T02:31:58.742Z,62317.86
2023-03-13T02:33:04.100Z,62306.06
2023-03-13T02:34:06.663Z,62307.01
2023-03-13T02:35:12.544Z,62314.61
2023-03-13T02:36:17.200Z,62315.02
2023-03-13T02:37:21.212Z,62318.12
2023-03-13T02:38:26.351Z,62314.07
2023-03-13T02:39:31.015Z,62307.42
2023-03-13T02:40:39.800Z,62313.10
2023-03-13T02:41:43.831Z,62306.62
2023-03-13T02:42:49.558Z,62311.76
2023-03-13T02:43:51.948Z,62308.63
2023-03-13T02:44:54.241Z,62311.89
2023-03-13T02:46:05.947Z,62299.02
2023-03-13T02:47:08.204Z,62295.64
2023-03-13T02:48:10.183Z,62306.73
2023-03-13T02:49:28.094Z,62293.19
2023-03-13T02:50:33.443Z,62305.25
2023-03-13T02:51:39.135Z,62285.73
2023-03-13T02:52:44.789Z,62291.44
2023-03-13T02:53:53.176Z,62293.46
2023-03-13T02:54:58.900Z,62297.95
2023-03-13T02:56:02.548Z,62299.02
2023-03-13T02:57:05.662Z,62284.11
2023-03-13T02:58:10.048Z,62284.66
2023-03-13T02:59:12.083Z,62288.99
2023-03-13T03:00:15.785Z,62294.40
2023-03-13T03:01:18.027Z,62272.87
2023-03-13T03:02:21.241Z,62278.43
2023-03-13T03:03:23.184Z,62278.43
2023-03-13T03:04:27.170Z,62272.33
2023-03-13T03:05:29.183Z,62278.84
2023-03-13T03:06:31.509Z,62282.63
2023-03-13T03:07:33.648Z,62273.55
2023-03-13T03:08:35.806Z,62273.43
2023-03-13T03:09:37.669Z,62271.24
2023-03-13T03:10:40.040Z,62274.50
2023-03-13T03:11:44.440Z,62257.57
2023-03-13T03:12:46.394Z,62278.01
2023-03-13T03:13:48.504Z,62276.27
2023-03-13T03:14:50.484Z,62281.00
2023-03-13T03:15:52.599Z,62282.77
2023-03-13T03:16:54.953Z,62285.34
2023-03-13T03:17:58.067Z,62281.15
2023-03-13T03:19:00.236Z,62264.61
2023-03-13T03:20:03.156Z,62271.12
2023-03-13T03:21:06.958Z,62272.60
2023-03-13T03:22:09.887Z,62274.91
2023-03-13T03:23:12.015Z,62269.49
2023-03-13T03:24:13.900Z,62276.53
2023-03-13T03:25:16.988Z,62266.51
2023-03-13T03:26:19.467Z,62268.25
2023-03-13T03:27:21.328Z,62272.33
2023-03-13T03:28:23.231Z,62272.19
2023-03-13T03:29:25.689Z,62264.74
2023-03-13T03:30:27.799Z,62271.65
2023-03-13T03:31:31.082Z,62270.03
2023-03-13T03:32:33.181Z,62265.29
2023-03-13T03:33:36.347Z,62271.65
2023-03-13T03:34:38.583Z,62260.95
2023-03-13T03:35:40.552Z,62235.08
2023-03-13T03:36:42.588Z,62223.43
2023-03-13T03:37:44.464Z,62230.08
2023-03-13T03:38:46.770Z,62241.31
2023-03-13T03:39:48.675Z,62222.49
2023-03-13T03:40:50.651Z,62232.80
2023-03-13T03:41:52.517Z,62236.44
2023-03-13T03:42:54.391Z,62225.88
2023-03-13T03:43:56.589Z,62235.49
2023-03-13T03:44:58.586Z,62230.08
2023-03-13T03:46:02.627Z,62233.18
2023-03-13T03:47:04.909Z,62244.03
2023-03-13T03:48:06.890Z,62245.93
2023-03-13T03:49:08.922Z,62254.32
2023-03-13T03:50:11.085Z,62244.16
2023-03-13T03:51:13.821Z,62244.84
2023-03-13T03:52:15.711Z,62253.50
2023-03-13T03:53:17.701Z,62241.05
2023-03-13T03:54:19.596Z,62248.09
2023-03-13T03:55:21.466Z,62263.39
2023-03-13T03:56:23.499Z,62253.50
2023-03-13T03:57:25.414Z,62249.57
2023-03-13T03:58:28.376Z,62258.11
2023-03-13T03:59:30.756Z,62257.96
2023-03-13T04:00:33.208Z,62230.76
2023-03-13T04:01:35.241Z,62230.08
2023-03-13T04:02:38.774Z,62234.28
2023-03-13T04:03:40.875Z,62242.94
2023-03-13T04:04:42.934Z,62235.90
2023-03-13T04:05:44.802Z,62241.31
2023-03-13T04:06:47.030Z,62223.43
2023-03-13T04:07:49.012Z,62235.37
2023-03-13T04:08:50.889Z,62249.30
2023-03-13T04:09:52.755Z,62249.04
2023-03-13T04:10:54.743Z,62248.91
2023-03-13T04:11:56.632Z,62251.88
2023-03-13T04:12:58.525Z,62256.07
2023-03-13T04:14:00.408Z,62255.95
2023-03-13T04:15:03.253Z,62247.55
2023-03-13T04:16:10.888Z,62246.34
2023-03-13T04:17:13.270Z,62243.77
2023-03-13T04:18:15.262Z,62238.21
2023-03-13T04:19:17.173Z,62239.43
2023-03-13T04:20:19.390Z,62243.48
2023-03-13T04:21:22.813Z,62242.79
2023-03-13T04:22:25.127Z,62245.51
2023-03-13T04:23:28.559Z,62245.66
2023-03-13T04:24:31.847Z,62245.66
2023-03-13T04:25:35.224Z,62245.66
2023-03-13T04:26:37.380Z,62244.84
2023-03-13T04:27:39.605Z,62244.16
2023-03-13T04:28:41.599Z,62245.37
2023-03-13T04:29:43.797Z,62245.51
2023-03-13T04:30:45.976Z,62246.73
2023-03-13T04:31:48.039Z,62245.78
2023-03-13T04:32:50.052Z,62242.14
2023-03-13T04:33:52.032Z,62245.25
2023-03-13T04:34:53.966Z,62250.25
2023-03-13T04:35:56.010Z,62248.35
2023-03-13T04:36:58.668Z,62249.57
2023-03-13T04:38:01.593Z,62253.23
2023-03-13T04:39:03.991Z,62240.91
2023-03-13T04:40:07.629Z,62229.67
2023-03-13T04:41:09.854Z,62230.49
2023-03-13T04:42:12.098Z,62227.51
2023-03-13T04:43:14.569Z,62229.55
2023-03-13T04:44:16.601Z,62231.17
2023-03-13T04:45:19.933Z,62226.98
2023-03-13T04:46:22.840Z,62227.24
2023-03-13T04:47:24.986Z,62228.71
2023-03-13T04:48:27.410Z,62227.24
2023-03-13T04:49:29.778Z,62227.77
2023-03-13T04:50:32.013Z,62231.17
2023-03-13T04:51:34.029Z,62227.92
2023-03-13T04:52:36.059Z,62227.92
2023-03-13T04:53:38.673Z,62233.45
2023-03-13T04:54:40.765Z,62227.51
2023-03-13T04:55:43.303Z,62218.02
2023-03-13T04:56:46.976Z,62213.83
2023-03-13T04:57:49.239Z,62220.86
2023-03-13T04:58:51.808Z,62232.50
2023-03-13T04:59:53.722Z,62227.24
2023-03-13T05:00:56.079Z,62228.31
2023-03-13T05:01:58.111Z,62234.02
2023-03-13T05:03:00.008Z,62247.00
2023-03-13T05:04:02.938Z,62249.57
2023-03-13T05:05:05.252Z,62252.29
2023-03-13T05:06:08.998Z,62257.16
2023-03-13T05:07:11.034Z,62258.64
2023-03-13T05:08:13.227Z,62239.15
2023-03-13T05:09:15.101Z,62245.93
2023-03-13T05:10:17.415Z,62249.18
2023-03-13T05:11:19.437Z,62259.73
2023-03-13T05:12:21.446Z,62257.70
2023-03-13T05:13:23.499Z,62262.98
2023-03-13T05:14:26.760Z,62265.56
2023-03-13T05:15:28.800Z,62265.42
2023-03-13T05:16:31.040Z,62274.91
2023-03-13T05:17:33.151Z,62275.18
2023-03-13T05:18:35.104Z,62284.66
2023-03-13T05:19:38.260Z,62279.91
2023-03-13T05:20:40.471Z,62280.32
2023-03-13T05:21:43.544Z,62277.21
2023-03-13T05:22:45.588Z,62284.25
2023-03-13T05:23:47.532Z,62286.00
2023-03-13T05:24:49.407Z,62295.08
2023-03-13T05:25:51.837Z,62292.51
2023-03-13T05:26:54.685Z,62299.02
2023-03-13T05:27:58.767Z,62309.58
2023-03-13T05:29:01.273Z,62306.88
2023-03-13T05:30:04.511Z,62312.15
2023-03-13T05:31:06.612Z,62308.78
2023-03-13T05:32:08.953Z,62323.42
2023-03-13T05:33:11.105Z,62308.51
2023-03-13T05:34:13.077Z,62314.07
2023-03-13T05:35:14.966Z,62320.43
2023-03-13T05:36:17.070Z,62322.18
2023-03-13T05:37:19.216Z,62320.70
2023-03-13T05:38:21.452Z,62329.37
2023-03-13T05:39:23.844Z,62336.15
2023-03-13T05:40:25.942Z,62335.05
2023-03-13T05:41:27.841Z,62335.88
2023-03-13T05:42:29.735Z,62341.03
2023-03-13T05:43:31.732Z,62348.08
2023-03-13T05:44:33.810Z,62348.61
2023-03-13T05:45:36.926Z,62323.28
2023-03-13T05:46:39.107Z,62336.98
2023-03-13T05:47:41.405Z,62342.80
2023-03-13T05:48:43.317Z,62341.18
2023-03-13T05:49:45.185Z,62331.27
2023-03-13T05:50:47.392Z,62341.44
2023-03-13T05:51:49.878Z,62341.71
2023-03-13T05:52:52.773Z,62356.75
2023-03-13T05:53:54.671Z,62367.73
2023-03-13T05:54:56.542Z,62354.32
2023-03-13T05:55:58.479Z,62362.72
2023-03-13T05:57:00.865Z,62373.83
2023-03-13T05:58:02.974Z,62371.93
2023-03-13T05:59:04.841Z,62390.25
2023-03-13T06:00:09.781Z,62377.64
2023-03-13T06:01:14.304Z,62388.21
2023-03-13T06:02:16.266Z,62385.77
2023-03-13T06:03:18.197Z,62385.10
2023-03-13T06:04:20.574Z,62397.98
2023-03-13T06:05:22.805Z,62410.46
2023-03-13T06:06:24.865Z,62416.14
2023-03-13T06:07:26.733Z,62434.47
2023-03-13T06:08:29.069Z,62425.24
2023-03-13T06:09:31.592Z,62441.11
2023-03-13T06:10:33.874Z,62457.14
2023-03-13T06:11:35.756Z,62458.75
2023-03-13T06:12:38.420Z,62449.11
2023-03-13T06:13:40.404Z,62471.36
2023-03-13T06:14:42.481Z,62476.39
2023-03-13T06:15:53.311Z,62477.35
2023-03-13T06:16:56.259Z,62495.27
2023-03-13T06:17:58.148Z,62505.86
2023-03-13T06:19:00.142Z,62520.80
2023-03-13T06:20:03.441Z,62541.29
2023-03-13T06:21:05.647Z,62558.28
2023-03-13T06:22:08.027Z,62555.96
2023-03-13T06:23:10.312Z,62554.46
2023-03-13T06:24:12.194Z,62562.75
2023-03-13T06:25:14.650Z,62558.95
2023-03-13T06:26:16.867Z,62572.93
2023-03-13T06:27:18.856Z,62563.43
2023-03-13T06:28:21.631Z,62603.79
2023-03-13T06:29:23.768Z,62618.05
2023-03-13T06:30:25.751Z,62623.37
2023-03-13T06:31:27.835Z,62578.24
2023-03-13T06:32:31.773Z,62591.02
2023-03-13T06:33:34.227Z,62632.86
2023-03-13T06:34:37.869Z,62649.71
2023-03-13T06:35:55.311Z,62638.85
2023-03-13T06:36:45.757Z,62644.29
2023-03-13T06:37:47.752Z,62639.39
2023-03-13T06:38:51.554Z,62667.00
2023-03-13T06:39:53.624Z,62633.39
2023-03-13T06:40:55.933Z,62636.27
2023-03-13T06:41:58.428Z,62669.84
2023-03-13T06:43:00.711Z,62658.97
2023-03-13T06:44:03.454Z,62637.75
2023-03-13T06:45:06.720Z,62647.55
2023-03-13T06:46:18.139Z,62663.20
2023-03-13T06:47:21.383Z,62645.38
2023-03-13T06:48:23.413Z,62666.32
2023-03-13T06:49:25.481Z,62656.92
2023-03-13T06:50:28.046Z,62669.30
2023-03-13T06:51:30.254Z,62659.93
2023-03-13T06:52:43.181Z,62663.20
2023-03-13T06:53:35.990Z,62639.25
2023-03-13T06:54:37.893Z,62644.82
2023-03-13T06:55:39.792Z,62654.89
2023-03-13T06:56:42.144Z,62626.89
2023-03-13T06:57:44.138Z,62611.53
2023-03-13T06:58:47.395Z,62645.24
2023-03-13T06:59:49.462Z,62672.29
2023-03-13T07:00:51.516Z,62669.98
2023-03-13T07:01:56.678Z,62676.49
2023-03-13T07:02:58.764Z,62680.59
2023-03-13T07:04:00.884Z,62688.34
2023-03-13T07:05:03.967Z,62663.59
2023-03-13T07:06:07.777Z,62653.40
2023-03-13T07:07:13.193Z,62665.62
2023-03-13T07:08:13.512Z,62662.77
2023-03-13T07:09:16.780Z,62688.87
2023-03-13T07:10:19.215Z,62671.75
2023-03-13T07:11:21.497Z,62672.01
2023-03-13T07:12:23.395Z,62700.17
2023-03-13T07:13:26.317Z,62708.47
2023-03-13T07:14:28.738Z,62671.48
2023-03-13T07:15:31.981Z,62702.48
2023-03-13T07:16:34.231Z,62672.57
2023-03-13T07:17:36.961Z,62679.50
2023-03-13T07:18:40.274Z,62689.83
2023-03-13T07:19:42.709Z,62701.40
2023-03-13T07:20:47.398Z,62671.06
2023-03-13T07:21:49.316Z,62674.74
2023-03-13T07:22:52.978Z,62712.27
2023-03-13T07:23:55.017Z,62733.90
2023-03-13T07:24:57.046Z,62730.36
2023-03-13T07:26:01.934Z,62722.35
2023-03-13T07:27:07.516Z,62728.05
2023-03-13T07:28:07.740Z,62742.21
2023-03-13T07:29:09.928Z,62767.23
2023-03-13T07:30:14.020Z,62767.12
2023-03-13T07:31:20.537Z,62754.18
2023-03-13T07:32:22.811Z,62780.57
2023-03-13T07:33:24.831Z,62812.72
2023-03-13T07:34:26.725Z,62819.52
2023-03-13T07:35:28.960Z,62836.54
2023-03-13T07:36:31.039Z,62806.44
2023-03-13T07:37:33.157Z,62782.22
2023-03-13T07:38:35.131Z,62815.15
2023-03-13T07:39:37.084Z,62795.55
2023-03-13T07:40:39.310Z,62776.62
2023-03-13T07:41:41.350Z,62777.04
2023-03-13T07:42:43.251Z,62742.07
2023-03-13T07:43:46.794Z,62775.95
2023-03-13T07:44:48.759Z,62770.50
2023-03-13T07:45:57.242Z,62783.57
2023-03-13T07:47:00.684Z,62758.11
2023-03-13T07:48:02.858Z,62774.19
2023-03-13T07:49:04.823Z,62788.34
2023-03-13T07:50:08.728Z,62826.05
2023-03-13T07:51:17.312Z,62844.02
2023-03-13T07:52:19.420Z,62873.99
2023-03-13T07:53:23.034Z,62857.64
2023-03-13T07:54:25.484Z,62854.11
2023-03-13T07:55:27.444Z,62832.17
2023-03-13T07:56:29.427Z,62818.42
2023-03-13T07:57:31.309Z,62840.21
2023-03-13T07:58:35.751Z,62849.48
2023-03-13T07:59:37.749Z,62856.14
2023-03-13T08:00:39.733Z,62888.16
2023-03-13T08:01:41.970Z,62905.61
2023-03-13T08:02:43.941Z,62905.19
2023-03-13T08:03:46.628Z,62910.92
2023-03-13T08:06:03.163Z,62892.78
2023-03-13T08:07:09.380Z,62882.17
2023-03-13T08:08:11.471Z,62819.52
2023-03-13T08:09:14.765Z,62868.97
2023-03-13T08:10:17.053Z,62838.83
2023-03-13T08:11:21.368Z,62829.32
2023-03-13T08:12:23.327Z,62875.63
2023-03-13T08:13:25.203Z,62910.52
2023-03-13T08:14:27.286Z,62917.61
2023-03-13T08:15:29.588Z,62914.33
2023-03-13T08:16:33.668Z,62916.25
2023-03-13T08:17:35.833Z,62919.78
2023-03-13T08:18:40.617Z,62930.67
2023-03-13T08:19:42.567Z,62937.47
2023-03-13T08:20:45.713Z,62952.49
2023-03-13T08:21:47.767Z,62967.22
2023-03-13T08:22:52.123Z,62932.31
2023-03-13T08:23:56.522Z,62957.94
2023-03-13T08:24:58.458Z,62936.54
2023-03-13T08:26:11.997Z,62853.43
2023-03-13T08:27:13.950Z,62875.21
2023-03-13T08:28:15.801Z,62868.66
2023-03-13T08:29:18.963Z,62879.44
2023-03-13T08:30:21.361Z,62881.36
2023-03-13T08:32:37.790Z,62876.30
2023-03-13T08:33:42.547Z,62861.59
2023-03-13T08:34:44.740Z,62878.62
2023-03-13T08:35:47.658Z,62881.21
2023-03-13T08:36:49.835Z,62862.68
2023-03-13T08:37:51.791Z,62896.89
2023-03-13T08:38:55.213Z,62902.34
2023-03-13T08:39:57.143Z,62872.49
2023-03-13T08:40:59.136Z,62888.29
2023-03-13T08:42:01.013Z,62883.80
2023-03-13T08:43:02.959Z,62891.98
2023-03-13T08:44:05.343Z,62859.83
2023-03-13T08:45:08.999Z,62846.46
2023-03-13T08:46:11.526Z,62898.93
2023-03-13T08:47:14.007Z,62922.09
2023-03-13T08:48:16.561Z,62870.18
2023-03-13T08:49:18.484Z,62893.62
2023-03-13T08:50:20.460Z,62877.27
2023-03-13T08:51:25.018Z,62883.27
2023-03-13T08:52:27.045Z,62875.63
2023-03-13T08:53:30.401Z,62892.66
2023-03-13T08:54:33.803Z,62906.57
2023-03-13T08:55:35.772Z,62915.01
2023-03-13T08:56:38.153Z,62919.10
2023-03-13T08:57:40.090Z,62923.59
2023-03-13T08:58:47.616Z,62912.56
2023-03-13T08:59:51.345Z,62935.58
2023-03-13T09:00:55.856Z,62959.57
2023-03-13T09:01:59.604Z,62910.52
2023-03-13T09:03:02.754Z,62923.05
2023-03-13T09:04:08.513Z,62931.77
2023-03-13T09:05:10.578Z,62931.63
2023-03-13T09:06:13.898Z,62933.54
2023-03-13T09:07:15.808Z,62900.28
2023-03-13T09:08:17.683Z,62931.77
2023-03-13T09:09:19.602Z,62942.01
2023-03-13T09:10:21.572Z,62916.93
2023-03-13T09:11:24.106Z,62947.58
2023-03-13T09:12:31.196Z,62930.56
2023-03-13T09:13:33.660Z,62944.02
2023-03-13T09:14:36.784Z,62950.56
2023-03-13T09:15:38.954Z,62930.56
2023-03-13T09:16:40.921Z,62924.15
2023-03-13T09:17:42.784Z,62932.20
2023-03-13T09:18:45.822Z,62953.05
2023-03-13T09:19:59.719Z,62942.67
2023-03-13T09:20:52.425Z,62967.08
2023-03-13T09:21:54.407Z,62962.31
2023-03-13T09:22:56.304Z,62967.08
2023-03-13T09:23:59.120Z,62944.30
2023-03-13T09:25:01.028Z,62935.46
2023-03-13T09:26:04.780Z,62933.41
2023-03-13T09:27:06.690Z,62945.40
2023-03-13T09:28:09.456Z,62951.95
2023-03-13T09:29:11.684Z,62960.25
2023-03-13T09:30:14.780Z,62924.15
2023-03-13T09:31:19.773Z,62912.41
2023-03-13T09:32:22.053Z,62944.98
2023-03-13T09:33:24.078Z,62946.21
2023-03-13T09:34:26.097Z,62954.55
2023-03-13T09:35:28.267Z,62958.61
2023-03-13T09:36:30.433Z,62991.22
2023-03-13T09:37:32.363Z,62929.85
2023-03-13T09:38:35.146Z,62978.68
2023-03-13T09:39:37.261Z,63007.03
2023-03-13T09:40:56.470Z,62989.83
2023-03-13T09:41:52.609Z,62985.88
2023-03-13T09:42:58.036Z,62971.03
2023-03-13T09:44:03.747Z,62958.50
2023-03-13T09:45:09.503Z,62948.54
2023-03-13T09:46:27.653Z,62962.98
2023-03-13T09:47:39.996Z,62947.04
2023-03-13T09:48:51.465Z,62959.04
2023-03-13T09:50:01.112Z,62949.21
2023-03-13T09:51:25.223Z,62950.45
2023-03-13T09:52:36.614Z,62962.06
2023-03-13T09:53:48.325Z,62990.25
2023-03-13T09:55:02.783Z,63014.68
2023-03-13T09:56:08.767Z,63002.93
2023-03-13T09:57:26.490Z,63009.34
2023-03-13T09:58:31.311Z,62990.25
2023-03-13T09:59:43.240Z,62985.77
2023-03-13T10:00:49.221Z,62994.49
2023-03-13T10:01:54.795Z,62997.48
2023-03-13T10:03:12.597Z,63020.96
2023-03-13T10:04:21.303Z,62994.61
2023-03-13T10:05:29.014Z,63035.41
2023-03-13T10:06:37.868Z,63048.52
2023-03-13T10:07:40.440Z,63061.07
2023-03-13T10:08:42.396Z,63032.27
2023-03-13T10:09:44.447Z,63004.32
2023-03-13T10:11:02.198Z,63036.51
2023-03-13T10:12:14.870Z,63046.45
2023-03-13T10:14:41.329Z,63043.18
2023-03-13T10:15:55.719Z,63058.60
2023-03-13T10:17:07.383Z,63072.54
2023-03-13T10:18:14.481Z,63047.00
2023-03-13T10:19:28.647Z,63048.21
2023-03-13T10:20:36.365Z,63035.41
2023-03-13T10:21:41.050Z,63051.37
2023-03-13T10:22:46.744Z,63052.34
2023-03-13T10:23:55.217Z,63073.21
2023-03-13T10:25:09.880Z,63052.45
2023-03-13T10:26:18.449Z,63064.34
2023-03-13T10:27:20.524Z,63084.54
2023-03-13T10:28:22.705Z,63119.73
2023-03-13T10:29:27.258Z,63117.44
2023-03-13T10:30:34.411Z,63139.29
2023-03-13T10:31:37.958Z,63129.02
2023-03-13T10:32:40.977Z,63109.78
2023-03-13T10:33:43.962Z,63093.28
2023-03-13T10:34:55.405Z,63116.20
2023-03-13T10:36:13.206Z,63127.68
2023-03-13T10:37:18.940Z,63128.89
2023-03-13T10:38:23.494Z,63118.52
2023-03-13T10:39:28.418Z,63118.52
2023-03-13T10:40:30.617Z,63109.91
2023-03-13T10:41:37.423Z,63137.11
2023-03-13T10:42:45.168Z,63124.94
2023-03-13T10:45:05.375Z,63103.36
2023-03-13T10:46:09.734Z,63103.22
2023-03-13T10:47:14.365Z,63094.92
2023-03-13T10:48:24.273Z,63067.19
2023-03-13T10:49:26.986Z,63073.88
2023-03-13T10:50:34.188Z,63086.30
2023-03-13T10:51:38.859Z,63096.67
2023-03-13T10:52:46.073Z,63088.07
2023-03-13T10:53:48.543Z,63103.11
2023-03-13T10:54:52.368Z,63105.58
2023-03-13T10:56:00.220Z,63087.26
2023-03-13T10:57:11.885Z,63098.73
2023-03-13T10:58:29.374Z,63105.40
2023-03-13T10:59:32.391Z,63108.68
2023-03-13T11:00:37.607Z,63119.48
2023-03-13T11:01:42.726Z,63117.55
2023-03-13T11:02:45.617Z,63127.81
2023-03-13T11:03:49.966Z,63097.63
2023-03-13T11:04:53.228Z,63092.61
2023-03-13T11:06:01.472Z,63081.80
2023-03-13T11:07:16.184Z,63071.97
2023-03-13T11:08:22.049Z,63057.50
2023-03-13T11:09:24.242Z,63057.50
2023-03-13T11:10:29.144Z,63083.98
2023-03-13T11:11:34.857Z,63077.32
2023-03-13T11:12:40.515Z,63075.81
2023-03-13T11:13:44.003Z,63070.89
2023-03-13T11:14:46.224Z,63080.98
2023-03-13T11:15:54.938Z,63083.15
2023-03-13T11:17:22.258Z,63105.29
2023-03-13T11:18:30.941Z,63090.13
2023-03-13T11:19:48.955Z,63076.06
2023-03-13T11:20:51.674Z,63083.02
2023-03-13T11:22:09.330Z,63055.86
2023-03-13T11:23:21.033Z,63062.16
2023-03-13T11:24:33.958Z,63053.97
2023-03-13T11:25:45.077Z,63065.98
2023-03-13T11:27:04.744Z,63075.39
2023-03-13T11:28:05.986Z,63081.69
2023-03-13T11:29:14.891Z,63080.71
2023-03-13T11:30:22.396Z,63078.53
2023-03-13T11:31:37.464Z,63082.35
2023-03-13T11:32:48.817Z,63102.01
2023-03-13T11:34:01.060Z,63110.32
2023-03-13T11:35:06.967Z,63117.55
2023-03-13T11:36:16.328Z,63118.09
2023-03-13T11:37:21.639Z,63064.88
2023-03-13T11:38:36.039Z,63064.88
2023-03-13T11:40:13.714Z,63074.29
2023-03-13T11:41:40.667Z,63084.54
2023-03-13T11:42:58.615Z,63086.05
2023-03-13T11:44:19.370Z,63100.37
2023-03-13T11:45:58.740Z,63105.96
2023-03-13T11:47:26.482Z,63099.95
2023-03-13T11:48:50.442Z,63110.75
2023-03-13T11:50:16.658Z,63128.35
2023-03-13T11:51:25.558Z,63146.81
2023-03-13T11:53:05.141Z,63119.48
2023-03-13T11:54:43.554Z,63118.40
2023-03-13T11:55:52.299Z,63129.99
2023-03-13T11:58:26.249Z,63137.78
2023-03-13T11:59:44.691Z,63158.83
2023-03-13T12:01:08.913Z,63162.11
2023-03-13T12:02:30.183Z,63163.46
2023-03-13T12:03:55.968Z,63167.03
2023-03-13T12:05:01.938Z,63166.73
2023-03-13T12:06:13.272Z,63161.82
2023-03-13T12:07:18.185Z,63163.75
2023-03-13T12:08:42.290Z,63183.43
2023-03-13T12:09:50.075Z,63190.23
2023-03-13T12:11:12.712Z,63189.81
2023-03-13T12:12:35.263Z,63191.20
2023-03-13T12:13:41.302Z,63168.67
2023-03-13T12:15:58.332Z,63165.63
2023-03-13T12:17:10.052Z,63183.14
2023-03-13T12:18:30.883Z,63175.34
2023-03-13T12:19:42.580Z,63177.41
2023-03-13T12:20:57.974Z,63190.53
2023-03-13T12:22:03.737Z,63190.53
2023-03-13T12:23:21.588Z,63180.26
2023-03-13T12:24:39.288Z,63172.08
2023-03-13T12:25:53.623Z,63191.74
2023-03-13T12:28:25.626Z,63221.81
2023-03-13T12:30:00.783Z,63202.80
2023-03-13T12:31:08.922Z,63213.61
2023-03-13T12:33:33.731Z,63230.43
2023-03-13T12:34:51.712Z,63230.43
2023-03-13T12:36:00.416Z,63211.84
2023-03-13T12:37:33.089Z,63219.74
2023-03-13T12:38:52.022Z,63238.63
2023-03-13T12:40:17.610Z,63221.14
2023-03-13T12:41:35.068Z,63221.14
2023-03-13T12:42:48.689Z,63225.77
2023-03-13T12:44:09.254Z,63225.50
2023-03-13T12:44:59.167Z,63206.91
2023-03-13T12:46:31.590Z,63201.05
2023-03-13T12:47:49.572Z,63197.20
2023-03-13T12:48:58.226Z,63205.30
2023-03-13T12:50:22.011Z,63218.53
2023-03-13T12:51:44.458Z,63218.53
2023-03-13T12:53:21.045Z,63207.59
2023-03-13T12:56:03.596Z,63221.68
2023-03-13T12:57:44.705Z,63201.21
2023-03-13T12:58:53.546Z,63202.69